Map

Track Data

SID SEASON NUMBER BASIN SUBBASIN NAME ISO_TIME NATURE LAT LON WMO_WIND WMO_PRES WMO_AGENCY TRACK_TYPE DIST2LAND LANDFALL IFLAG USA_AGENCY USA_ATCF_ID USA_LAT USA_LON USA_RECORD USA_STATUS USA_WIND USA_PRES USA_SSHS USA_R34_NE USA_R34_SE USA_R34_SW USA_R34_NW USA_R50_NE USA_R50_SE USA_R50_SW USA_R50_NW USA_R64_NE USA_R64_SE USA_R64_SW USA_R64_NW USA_POCI USA_ROCI USA_RMW USA_EYE TOKYO_LAT TOKYO_LON TOKYO_GRADE TOKYO_WIND TOKYO_PRES TOKYO_R50_DIR TOKYO_R50_LONG TOKYO_R50_SHORT TOKYO_R30_DIR TOKYO_R30_LONG TOKYO_R30_SHORT TOKYO_LAND CMA_LAT CMA_LON CMA_CAT CMA_WIND CMA_PRES HKO_LAT HKO_LON HKO_CAT HKO_WIND HKO_PRES NEWDELHI_LAT NEWDELHI_LON NEWDELHI_GRADE NEWDELHI_WIND NEWDELHI_PRES NEWDELHI_CI NEWDELHI_DP NEWDELHI_POCI REUNION_LAT REUNION_LON REUNION_TYPE REUNION_WIND REUNION_PRES REUNION_TNUM REUNION_CI REUNION_RMW REUNION_R34_NE REUNION_R34_SE REUNION_R34_SW REUNION_R34_NW REUNION_R50_NE REUNION_R50_SE REUNION_R50_SW REUNION_R50_NW REUNION_R64_NE REUNION_R64_SE REUNION_R64_SW REUNION_R64_NW BOM_LAT BOM_LON BOM_TYPE BOM_WIND BOM_PRES BOM_TNUM BOM_CI BOM_RMW BOM_R34_NE BOM_R34_SE BOM_R34_SW BOM_R34_NW BOM_R50_NE BOM_R50_SE BOM_R50_SW BOM_R50_NW BOM_R64_NE BOM_R64_SE BOM_R64_SW BOM_R64_NW BOM_ROCI BOM_POCI BOM_EYE BOM_POS_METHOD BOM_PRES_METHOD NADI_LAT NADI_LON NADI_CAT NADI_WIND NADI_PRES WELLINGTON_LAT WELLINGTON_LON WELLINGTON_WIND WELLINGTON_PRES DS824_LAT DS824_LON DS824_STAGE DS824_WIND DS824_PRES TD9636_LAT TD9636_LON TD9636_STAGE TD9636_WIND TD9636_PRES TD9635_LAT TD9635_LON TD9635_WIND TD9635_PRES TD9635_ROCI NEUMANN_LAT NEUMANN_LON NEUMANN_CLASS NEUMANN_WIND NEUMANN_PRES MLC_LAT MLC_LON MLC_CLASS MLC_WIND MLC_PRES USA_GUST BOM_GUST BOM_GUST_PER REUNION_GUST REUNION_GUST_PER USA_SEAHGT USA_SEARAD_NE USA_SEARAD_SE USA_SEARAD_SW USA_SEARAD_NW STORM_SPEED STORM_DIR
1923288N22296 1923 68 NA NA NOT_NAMED 1923-10-15 00:00:00 TS 21.6000 -63.8000 35 hurdat_atl main 404 404 O_____________ hurdat_atl AL071923 21.6000 -63.8000 TS 35 0 13 37
1923288N22296 1923 68 NA NA NOT_NAMED 1923-10-15 03:00:00 TS 22.1002 -63.3955 main 473 473 P_____________ AL071923 22.1002 -63.3955 TS 35 0 12 37
1923288N22296 1923 68 NA NA NOT_NAMED 1923-10-15 06:00:00 TS 22.6000 -63.0000 35 hurdat_atl main 542 542 O_____________ hurdat_atl AL071923 22.6000 -63.0000 TS 35 0 12 35
1923288N22296 1923 68 NA NA NOT_NAMED 1923-10-15 09:00:00 TS 23.1000 -62.6273 main 611 611 P_____________ AL071923 23.1000 -62.6273 TS 35 0 12 33
1923288N22296 1923 68 NA NA NOT_NAMED 1923-10-15 12:00:00 TS 23.6000 -62.3000 35 hurdat_atl main 674 674 O_____________ hurdat_atl AL071923 23.6000 -62.3000 TS 35 0 11 29
1923288N22296 1923 68 NA NA NOT_NAMED 1923-10-15 15:00:00 TS 24.0999 -62.0272 main 738 738 P_____________ AL071923 24.0999 -62.0272 TS 35 0 11 25
1923288N22296 1923 68 NA NA NOT_NAMED 1923-10-15 18:00:00 TS 24.6000 -61.8000 35 hurdat_atl main 796 796 O_____________ hurdat_atl AL071923 24.6000 -61.8000 TS 35 0 11 22
1923288N22296 1923 68 NA NA NOT_NAMED 1923-10-15 21:00:00 TS 25.0925 -61.5774 main 855 855 P_____________ AL071923 25.0925 -61.5774 TS 37 0 11 20
1923288N22296 1923 68 NA NA NOT_NAMED 1923-10-16 00:00:00 TS 25.6000 -61.4000 40 hurdat_atl main 913 913 O_____________ hurdat_atl AL071923 25.6000 -61.4000 TS 40 0 11 14
1923288N22296 1923 68 NA NA NOT_NAMED 1923-10-16 03:00:00 TS 26.1275 -61.2847 main 967 967 P_____________ AL071923 26.1275 -61.2847 TS 42 0 11 9
1923288N22296 1923 68 NA NA NOT_NAMED 1923-10-16 06:00:00 TS 26.7000 -61.2000 45 hurdat_atl main 1031 1031 O_____________ hurdat_atl AL071923 26.7000 -61.2000 TS 45 0 12 8
1923288N22296 1923 68 NA NA NOT_NAMED 1923-10-16 09:00:00 TS 27.3350 -61.0852 main 1096 1096 P_____________ AL071923 27.3350 -61.0852 TS 47 0 13 8
1923288N22296 1923 68 NA NA NOT_NAMED 1923-10-16 12:00:00 TS 28.0000 -61.0000 50 hurdat_atl main 1171 1171 O_____________ hurdat_atl AL071923 28.0000 -61.0000 TS 50 0 13 4
1923288N22296 1923 68 NA NA NOT_NAMED 1923-10-16 15:00:00 TS 28.6425 -60.9774 main 1232 1232 P_____________ AL071923 28.6425 -60.9774 TS 52 0 13 1
1923288N22296 1923 68 NA NA NOT_NAMED 1923-10-16 18:00:00 TS 29.3000 -61.0000 55 hurdat_atl main 1304 1304 O_____________ hurdat_atl AL071923 29.3000 -61.0000 TS 55 0 14 358
1923288N22296 1923 68 NA NA NOT_NAMED 1923-10-16 21:00:00 TS 29.9925 -61.0351 main 1377 1377 P_____________ AL071923 29.9925 -61.0351 TS 55 0 14 356
1923288N22296 1923 68 NA NA NOT_NAMED 1923-10-17 00:00:00 TS 30.7000 -61.1000 55 hurdat_atl main 1447 1388 O_____________ hurdat_atl AL071923 30.7000 -61.1000 TS 55 0 14 356
1923288N22296 1923 68 NA NA NOT_NAMED 1923-10-17 03:00:00 TS 31.3998 -61.1558 main 1388 1316 P_____________ AL071923 31.3998 -61.1558 TS 55 0 14 353
1923288N22296 1923 68 NA NA NOT_NAMED 1923-10-17 06:00:00 TS 32.1000 -61.3000 55 hurdat_atl main 1316 1233 O_____________ hurdat_atl AL071923 32.1000 -61.3000 TS 55 0 15 346
1923288N22296 1923 68 NA NA NOT_NAMED 1923-10-17 09:00:00 TS 32.8223 -61.5825 main 1233 1149 P_____________ AL071923 32.8223 -61.5825 TS 55 0 15 337
1923288N22296 1923 68 NA NA NOT_NAMED 1923-10-17 12:00:00 TS 33.5000 -62.0000 55 hurdat_atl main 1149 1070 O_____________ hurdat_atl AL071923 33.5000 -62.0000 TS 55 0 15 329
1923288N22296 1923 68 NA NA NOT_NAMED 1923-10-17 15:00:00 TS 34.0874 -62.5054 main 1070 992 P_____________ AL071923 34.0874 -62.5054 TS 55 0 14 320
1923288N22296 1923 68 NA NA NOT_NAMED 1923-10-17 18:00:00 TS 34.6000 -63.1000 55 hurdat_atl main 992 915 O_____________ hurdat_atl AL071923 34.6000 -63.1000 TS 55 0 14 315
1923288N22296 1923 68 NA NA NOT_NAMED 1923-10-17 21:00:00 TS 35.0797 -63.7280 main 915 843 P_____________ AL071923 35.0797 -63.7280 TS 55 0 14 310
1923288N22296 1923 68 NA NA NOT_NAMED 1923-10-18 00:00:00 TS 35.5000 -64.4000 55 hurdat_atl main 843 781 O_____________ hurdat_atl AL071923 35.5000 -64.4000 TS 55 0 14 305
1923288N22296 1923 68 NA NA NOT_NAMED 1923-10-18 03:00:00 TS 35.8575 -65.1084 main 771 711 P_____________ AL071923 35.8575 -65.1084 TS 55 0 13 302
1923288N22296 1923 68 NA NA NOT_NAMED 1923-10-18 06:00:00 TS 36.2000 -65.8000 55 hurdat_atl main 711 656 O_____________ hurdat_atl AL071923 36.2000 -65.8000 TS 55 0 13 304
1923288N22296 1923 68 NA NA NOT_NAMED 1923-10-18 09:00:00 TS 36.5697 -66.4309 main 646 582 P_____________ AL071923 36.5697 -66.4309 TS 55 0 13 310
1923288N22296 1923 68 NA NA NOT_NAMED 1923-10-18 12:00:00 TS 37.0000 -67.0000 55 hurdat_atl main 582 513 O_____________ hurdat_atl AL071923 37.0000 -67.0000 TS 55 0 13 317
1923288N22296 1923 68 NA NA NOT_NAMED 1923-10-18 15:00:00 TS 37.5046 -67.5160 main 513 435 P_____________ AL071923 37.5046 -67.5160 TS 55 0 14 324
1923288N22296 1923 68 NA NA NOT_NAMED 1923-10-18 18:00:00 TS 38.1000 -68.0000 55 hurdat_atl main 435 346 O_____________ hurdat_atl AL071923 38.1000 -68.0000 TS 55 0 15 329
1923288N22296 1923 68 NA NA NOT_NAMED 1923-10-18 21:00:00 TS 38.8073 -68.4999 main 346 258 P_____________ AL071923 38.8073 -68.4999 TS 55 0 16 331
1923288N22296 1923 68 NA NA NOT_NAMED 1923-10-19 00:00:00 TS 39.5000 -69.0000 55 hurdat_atl main 258 203 O_____________ hurdat_atl AL071923 39.5000 -69.0000 TS 55 0 14 327
1923288N22296 1923 68 NA NA NOT_NAMED 1923-10-19 03:00:00 TS 39.9655 -69.4820 main 193 125 P_____________ AL071923 39.9655 -69.4820 TS 52 0 13 323
1923288N22296 1923 68 NA NA NOT_NAMED 1923-10-19 06:00:00 TS 40.5000 -70.0000 50 hurdat_atl main 125 34 O_____________ hurdat_atl AL071923 40.5000 -70.0000 TS 50 0 16 327
1923288N22296 1923 68 NA NA NOT_NAMED 1923-10-19 09:00:00 TS 41.3000 -70.6000 50 hurdat_atl main 23 0 O_____________ hurdat_atl AL071923 41.3000 -70.6000 L TS 50 0 21 339
1923288N22296 1923 68 NA NA NOT_NAMED 1923-10-19 12:00:00 TS 42.5000 -71.0000 45 994 hurdat_atl main 0 0 O_____________ hurdat_atl AL071923 42.5000 -71.0000 TS 45 994 0 24 346
1923288N22296 1923 68 NA NA NOT_NAMED 1923-10-19 15:00:00 TS 43.5786 -71.3850 main 0 0 P_____________ AL071923 43.5786 -71.3850 TS 40 0 21 344
1923288N22296 1923 68 NA NA NOT_NAMED 1923-10-19 18:00:00 ET 44.5000 -71.8000 35 hurdat_atl main 0 O_____________ hurdat_atl AL071923 44.5000 -71.8000 EX 35 -4 19 342

About IBTrACS Database

This database is a web-friendly format of International Best Track Archive for Climate Stewardship (IBTrACS), a global best track data archive curated by NOAA dating back to 1842.

Updated: 2021-12-01